Airfield :
LOGIN :

Register | Disclaimer

   EN    FR    IT 

 










Legend :    VFR   Marginal VFR   IFR   Intensive IFR   Very Intensive IFR
Visi :
Ceiling :
>= 8 km
>= 3000ft
5 to 8 km
1000 to 3000 ft
1500m to 5 km
500 to 1000 ft
800 to 1500m
200 to 500 ft
< 800m
< 200 ft
Symbols :   Thunderstorms  Fog  Heavy snow  Heavy precipitations  Wind > 20 kt
SIGMETs :     Misc.  Thunderstorms  Icing  Turbulence  Mountain Waves  Volcanic Ashes






- Airport Elevation : 646 ft
- IATA code : VNO


EYVI - Vilnius int.

CURRENT METAR :
  • 061720Z 22012KT 9999 OVC016 02/M03 Q1005 R19/2///95 NOSIG

EXPIRED METARs :
  • 061650Z 22012KT 9999 OVC018 02/M03 Q1005 R19/2///95 NOSIG
  • 061620Z 21010KT 9999 -RA OVC019 01/M03 Q1006 R19/2///95 NOSIG
  • 061550Z 20010KT 9000 -RA OVC019 01/M03 Q1005 R19/2///95 NOSIG
  • 061520Z 19010KT 8000 -RA OVC020 01/M02 Q1005 R19/2///95 NOSIG
  • 061450Z 20011KT 9000 -RA OVC020 01/M03 Q1005 R19/2///95 NOSIG

TAF TAF EYVI
Valid from the 06 at 18:00 until the 07 at 18:00 UTC


061701Z 0618/0718 20013KT 5000 BR OVC015
TEMPO 0618/0701 RA OVC009
TEMPO 0701/0706 2000 RA BKN005
TEMPO 0712/0718 1500 SNRA OVC003



MET'MAP, your aeronautical weather chart ! - Copyright ORBIFLY December 2007 - Disclaimer

ORBIFLY MET'MAP TEAM :

Programming & Development : Alexandra Zaïnal
Concept & original design : Baudouin d'Aumeries
Assistance for programming : Marc-Olivier Méhu
Technical & hardware support : Manuel Goepfert

Contact : metmap@orbifly.com




SOURCES & CREDITS :

   NOAA